createdAt,value
2023-05-22T00:01:06.764Z,16.49
2023-05-22T00:03:36.499Z,16.45
2023-05-22T00:06:06.206Z,16.40
2023-05-22T00:08:34.393Z,16.38
2023-05-22T00:11:03.991Z,16.35
2023-05-22T00:13:32.138Z,16.30
2023-05-22T00:16:00.299Z,16.26
2023-05-22T00:18:28.406Z,16.21
2023-05-22T00:20:56.549Z,16.15
2023-05-22T00:23:27.809Z,16.11
2023-05-22T00:25:56.004Z,16.08
2023-05-22T00:28:25.502Z,16.04
2023-05-22T00:30:53.821Z,16.00
2023-05-22T00:33:21.921Z,15.97
2023-05-22T00:35:50.032Z,15.93
2023-05-22T00:38:30.228Z,15.86
2023-05-22T00:40:58.374Z,15.82
2023-05-22T00:43:28.146Z,15.77
2023-05-22T00:45:56.316Z,15.74
2023-05-22T00:48:24.767Z,15.67
2023-05-22T00:50:54.988Z,15.63
2023-05-22T00:53:25.360Z,15.58
2023-05-22T00:55:54.805Z,15.55
2023-05-22T00:58:26.354Z,15.52
2023-05-22T01:00:55.992Z,15.49
2023-05-22T01:03:26.957Z,15.45
2023-05-22T01:05:55.916Z,15.42
2023-05-22T01:08:24.347Z,15.39
2023-05-22T01:10:55.977Z,15.34
2023-05-22T01:13:29.857Z,15.30
2023-05-22T01:16:07.051Z,15.25
2023-05-22T01:18:40.735Z,15.20
2023-05-22T01:21:14.525Z,15.18
2023-05-22T01:24:20.041Z,15.15
2023-05-22T01:27:07.807Z,15.14
2023-05-22T01:30:05.201Z,15.08
2023-05-22T01:32:35.989Z,15.06
2023-05-22T01:35:06.699Z,15.01
2023-05-22T01:37:35.845Z,14.97
2023-05-22T01:40:06.445Z,14.91
2023-05-22T01:42:35.666Z,14.88
2023-05-22T01:45:03.824Z,14.88
2023-05-22T01:47:33.807Z,14.86
2023-05-22T01:50:04.961Z,14.83
2023-05-22T01:52:37.411Z,14.80
2023-05-22T01:55:13.482Z,14.78
2023-05-22T01:57:46.771Z,14.76
2023-05-22T02:00:16.339Z,14.73
2023-05-22T02:02:48.989Z,14.69
2023-05-22T02:05:19.571Z,14.65
2023-05-22T02:07:49.131Z,14.63
2023-05-22T02:10:17.764Z,14.61
2023-05-22T02:12:46.162Z,14.59
2023-05-22T02:15:14.390Z,14.58
2023-05-22T02:17:42.548Z,14.58
2023-05-22T02:20:14.567Z,14.58
2023-05-22T02:22:45.331Z,14.57
2023-05-22T02:25:15.198Z,14.55
2023-05-22T02:27:43.826Z,14.52
2023-05-22T02:30:13.212Z,14.51
2023-05-22T02:32:41.931Z,14.49
2023-05-22T02:35:10.777Z,14.48
2023-05-22T02:37:39.172Z,14.48
2023-05-22T02:40:11.096Z,14.49
2023-05-22T02:42:39.253Z,14.47
2023-05-22T02:45:08.641Z,14.46
2023-05-22T02:47:36.749Z,14.46
2023-05-22T02:50:05.171Z,14.44
2023-05-22T02:52:33.269Z,14.44
2023-05-22T02:55:01.394Z,14.45
2023-05-22T02:57:30.914Z,14.43
2023-05-22T02:59:59.249Z,14.41
2023-05-22T03:02:28.381Z,14.36
2023-05-22T03:04:59.046Z,14.35
2023-05-22T03:07:29.417Z,14.36
2023-05-22T03:09:57.555Z,14.35
2023-05-22T03:12:25.670Z,14.35
2023-05-22T03:14:55.138Z,14.35
2023-05-22T03:17:23.279Z,14.36
2023-05-22T03:19:51.421Z,14.37
2023-05-22T03:22:19.666Z,14.38
2023-05-22T03:24:47.901Z,14.40
2023-05-22T03:27:17.338Z,14.38
2023-05-22T03:29:45.462Z,14.36
2023-05-22T03:32:14.900Z,14.38
2023-05-22T03:34:43.506Z,14.38
2023-05-22T03:37:11.748Z,14.38
2023-05-22T03:39:40.490Z,14.36
2023-05-22T03:42:08.687Z,14.36
2023-05-22T03:44:36.803Z,14.35
2023-05-22T03:47:05.365Z,14.38
2023-05-22T03:49:34.868Z,14.40
2023-05-22T03:52:03.663Z,14.43
2023-05-22T03:54:31.911Z,14.46
2023-05-22T03:57:00.018Z,14.48
2023-05-22T03:59:28.141Z,14.51
2023-05-22T04:01:58.078Z,14.53
2023-05-22T04:04:26.901Z,14.57
2023-05-22T04:06:58.212Z,14.60
2023-05-22T04:09:28.162Z,14.63
2023-05-22T04:11:56.508Z,14.66
2023-05-22T04:14:24.601Z,14.73
2023-05-22T04:16:52.742Z,14.77
2023-05-22T04:19:20.973Z,14.82
2023-05-22T04:21:50.083Z,14.85
2023-05-22T04:24:19.739Z,14.89
2023-05-22T04:26:47.901Z,14.93
2023-05-22T04:29:16.623Z,15.00
2023-05-22T04:31:44.811Z,15.11
2023-05-22T04:34:13.768Z,15.19
2023-05-22T04:36:41.887Z,15.27
2023-05-22T04:39:09.989Z,15.41
2023-05-22T04:41:40.348Z,15.55
2023-05-22T04:44:08.637Z,15.68
2023-05-22T04:46:36.950Z,15.82
2023-05-22T04:49:05.108Z,15.95
2023-05-22T04:51:34.985Z,16.09
2023-05-22T04:54:03.195Z,16.19
2023-05-22T04:56:36.684Z,16.29
2023-05-22T04:59:09.308Z,16.44
2023-05-22T05:01:37.951Z,16.62
2023-05-22T05:04:06.470Z,16.81
2023-05-22T05:06:35.863Z,17.00
2023-05-22T05:09:04.145Z,17.21
2023-05-22T05:11:32.301Z,17.41
2023-05-22T05:14:00.614Z,17.58
2023-05-22T05:16:30.275Z,17.76
2023-05-22T05:18:58.560Z,17.88
2023-05-22T05:21:27.975Z,18.05
2023-05-22T05:23:56.266Z,18.20
2023-05-22T05:26:24.974Z,18.38
2023-05-22T05:28:53.128Z,18.58
2023-05-22T05:31:21.423Z,18.75
2023-05-22T05:33:52.109Z,18.95
2023-05-22T05:36:20.190Z,19.11
2023-05-22T05:38:48.322Z,19.28
2023-05-22T05:41:16.780Z,19.42
2023-05-22T05:43:44.962Z,19.58
2023-05-22T05:46:13.217Z,19.76
2023-05-22T05:48:41.580Z,19.95
2023-05-22T05:51:11.129Z,20.15
2023-05-22T05:53:40.686Z,20.28
2023-05-22T05:56:09.532Z,20.41
2023-05-22T05:58:38.146Z,20.57
2023-05-22T06:01:06.414Z,20.75
2023-05-22T06:03:34.919Z,20.91
2023-05-22T06:06:03.456Z,21.07
2023-05-22T06:08:34.400Z,21.30
2023-05-22T06:11:03.432Z,21.51
2023-05-22T06:13:31.519Z,21.76
2023-05-22T06:16:02.156Z,21.96
2023-05-22T06:18:32.289Z,22.06
2023-05-22T06:21:00.454Z,22.11
2023-05-22T06:23:28.681Z,22.10
2023-05-22T06:25:58.344Z,22.05
2023-05-22T06:28:26.454Z,22.01
2023-05-22T06:30:54.618Z,21.99
2023-05-22T06:33:23.066Z,22.19
2023-05-22T06:35:51.327Z,22.48
2023-05-22T06:38:19.609Z,22.77
2023-05-22T06:40:47.717Z,22.89
2023-05-22T06:43:17.252Z,22.96
2023-05-22T06:45:45.552Z,22.95
2023-05-22T06:48:13.727Z,22.94
2023-05-22T06:50:41.913Z,22.95
2023-05-22T06:53:10.084Z,22.84
2023-05-22T06:55:38.214Z,22.83
2023-05-22T06:58:06.322Z,22.96
2023-05-22T07:00:35.947Z,23.28
2023-05-22T07:03:06.324Z,23.45
2023-05-22T07:05:34.617Z,23.54
2023-05-22T07:08:02.854Z,23.55
2023-05-22T07:10:31.298Z,23.49
2023-05-22T07:12:59.571Z,23.45
2023-05-22T07:15:27.823Z,23.40
2023-05-22T07:17:57.356Z,23.35
2023-05-22T07:20:26.816Z,23.35
2023-05-22T07:22:54.942Z,23.41
2023-05-22T07:25:23.062Z,23.54
2023-05-22T07:27:51.191Z,23.87
2023-05-22T07:30:19.459Z,24.23
2023-05-22T07:32:48.191Z,24.57
2023-05-22T07:35:17.943Z,24.78
2023-05-22T07:37:46.081Z,25.00
2023-05-22T07:40:14.383Z,25.27
2023-05-22T07:42:42.554Z,25.47
2023-05-22T07:45:11.769Z,25.55
2023-05-22T07:47:40.021Z,25.38
2023-05-22T07:50:09.697Z,25.22
2023-05-22T07:52:39.315Z,25.12
2023-05-22T07:55:08.808Z,25.10
2023-05-22T07:57:36.924Z,25.07
2023-05-22T08:00:13.938Z,25.08
2023-05-22T08:02:42.577Z,25.19
2023-05-22T08:05:11.754Z,25.30
2023-05-22T08:07:42.260Z,25.48
2023-05-22T08:10:15.709Z,25.69
2023-05-22T08:12:43.906Z,25.82
2023-05-22T08:15:13.022Z,25.94
2023-05-22T08:17:41.224Z,25.99
2023-05-22T08:20:10.983Z,26.01
2023-05-22T08:22:41.836Z,26.06
2023-05-22T08:25:10.802Z,26.28
2023-05-22T08:27:38.995Z,26.57
2023-05-22T08:30:08.460Z,26.78
2023-05-22T08:32:36.625Z,26.85
2023-05-22T08:35:05.129Z,26.86
2023-05-22T08:37:33.256Z,26.86
2023-05-22T08:40:02.912Z,26.81
2023-05-22T08:42:31.037Z,26.72
2023-05-22T08:45:01.103Z,26.35
2023-05-22T08:47:29.429Z,25.94
2023-05-22T08:49:58.965Z,25.68
2023-05-22T08:52:42.823Z,25.68
2023-05-22T08:55:12.466Z,25.84
2023-05-22T08:57:41.288Z,26.02
2023-05-22T09:00:10.497Z,26.16
2023-05-22T09:02:39.198Z,26.29
2023-05-22T09:05:09.224Z,26.40
2023-05-22T09:07:38.033Z,26.49
2023-05-22T09:10:07.265Z,26.49
2023-05-22T09:12:36.759Z,26.45
2023-05-22T09:15:10.050Z,26.51
2023-05-22T09:17:40.758Z,26.70
2023-05-22T09:20:13.312Z,27.05
2023-05-22T09:22:41.508Z,27.47
2023-05-22T09:25:10.206Z,27.86
2023-05-22T09:27:39.703Z,28.01
2023-05-22T09:30:09.832Z,28.24
2023-05-22T09:32:39.197Z,28.38
2023-05-22T09:35:08.113Z,28.43
2023-05-22T09:37:38.415Z,28.37
2023-05-22T09:40:07.986Z,28.52
2023-05-22T09:42:36.471Z,28.65
2023-05-22T09:45:07.560Z,28.87
2023-05-22T09:47:36.286Z,28.94
2023-05-22T09:50:07.433Z,28.96
2023-05-22T09:52:36.704Z,28.87
2023-05-22T09:55:06.944Z,28.60
2023-05-22T09:57:42.515Z,28.38
2023-05-22T10:00:15.499Z,28.29
2023-05-22T10:02:46.060Z,28.32
2023-05-22T10:05:21.207Z,28.51
2023-05-22T10:07:51.816Z,28.65
2023-05-22T10:10:22.302Z,28.81
2023-05-22T10:12:54.405Z,28.82
2023-05-22T10:15:24.805Z,28.76
2023-05-22T10:17:53.059Z,28.41
2023-05-22T10:20:21.800Z,27.96
2023-05-22T10:22:50.003Z,27.63
2023-05-22T10:25:19.161Z,27.40
2023-05-22T10:27:47.466Z,27.23
2023-05-22T10:30:24.419Z,27.09
2023-05-22T10:32:58.581Z,27.12
2023-05-22T10:35:31.503Z,27.23
2023-05-22T10:38:11.619Z,27.28
2023-05-22T10:40:40.009Z,27.46
2023-05-22T10:43:08.354Z,27.58
2023-05-22T10:45:36.784Z,27.41
2023-05-22T10:48:07.865Z,27.16
2023-05-22T10:50:36.856Z,26.86
2023-05-22T10:53:22.313Z,26.61
2023-05-22T10:55:50.906Z,26.51
2023-05-22T10:58:19.111Z,26.41
2023-05-22T11:00:47.236Z,26.27
2023-05-22T11:03:18.201Z,26.15
2023-05-22T11:05:53.391Z,26.15
2023-05-22T11:08:38.166Z,26.22
2023-05-22T11:11:14.461Z,26.28
2023-05-22T11:13:43.674Z,26.30
2023-05-22T11:16:12.425Z,26.35
2023-05-22T11:18:41.960Z,26.40
2023-05-22T11:21:13.921Z,26.36
2023-05-22T11:23:42.402Z,26.26
2023-05-22T11:26:26.439Z,26.20
2023-05-22T11:28:56.631Z,26.06
2023-05-22T11:31:27.496Z,25.97
2023-05-22T11:33:59.720Z,25.91
2023-05-22T11:36:28.937Z,25.91
2023-05-22T11:38:59.797Z,25.92
2023-05-22T11:41:33.609Z,25.92
2023-05-22T11:44:02.223Z,25.89
2023-05-22T11:46:30.463Z,25.81
2023-05-22T11:49:00.016Z,25.73
2023-05-22T11:51:28.728Z,25.66
2023-05-22T11:53:57.218Z,25.68
2023-05-22T11:56:25.337Z,25.63
2023-05-22T11:58:53.416Z,25.58
2023-05-22T12:01:21.522Z,25.53
2023-05-22T12:03:52.366Z,25.47
2023-05-22T12:06:22.110Z,25.43
2023-05-22T12:08:50.672Z,25.40
2023-05-22T12:11:18.861Z,25.31
2023-05-22T12:13:47.087Z,25.25
2023-05-22T12:16:22.889Z,25.22
2023-05-22T12:18:54.295Z,25.17
2023-05-22T12:21:23.935Z,25.14
2023-05-22T12:23:52.684Z,25.15
2023-05-22T12:26:21.470Z,25.25
2023-05-22T12:28:53.339Z,25.39
2023-05-22T12:31:21.879Z,25.57
2023-05-22T12:33:49.997Z,25.74
2023-05-22T12:36:18.130Z,25.92
2023-05-22T12:38:48.743Z,26.13
2023-05-22T12:41:16.852Z,26.35
2023-05-22T12:43:44.945Z,26.41
2023-05-22T12:46:13.578Z,26.43
2023-05-22T12:48:41.717Z,26.43
2023-05-22T12:51:10.573Z,26.47
2023-05-22T12:53:38.763Z,26.42
2023-05-22T12:56:08.375Z,26.34
2023-05-22T12:58:36.474Z,26.17
2023-05-22T13:01:04.636Z,26.01
2023-05-22T13:03:32.987Z,25.98
2023-05-22T13:06:01.391Z,25.95
2023-05-22T13:08:29.502Z,25.90
2023-05-22T13:10:57.833Z,25.84
2023-05-22T13:13:27.358Z,25.85
2023-05-22T13:15:55.719Z,25.85
2023-05-22T13:18:23.880Z,25.85
2023-05-22T13:20:52.008Z,25.95
2023-05-22T13:23:20.144Z,26.16
2023-05-22T13:25:48.247Z,26.36
2023-05-22T13:28:16.363Z,26.41
2023-05-22T13:30:45.879Z,26.57
2023-05-22T13:33:14.034Z,26.69
2023-05-22T13:35:42.340Z,26.62
2023-05-22T13:38:10.602Z,26.48
2023-05-22T13:40:38.713Z,26.59
2023-05-22T13:43:06.861Z,26.75
2023-05-22T13:45:34.944Z,26.98
2023-05-22T13:48:04.460Z,27.07
2023-05-22T13:50:32.575Z,27.11
2023-05-22T13:53:00.668Z,27.02
2023-05-22T13:55:28.756Z,26.83
2023-05-22T13:57:56.862Z,26.53
2023-05-22T14:00:25.088Z,26.32
2023-05-22T14:02:53.316Z,26.11
2023-05-22T14:05:23.192Z,26.05
2023-05-22T14:07:51.378Z,26.03
2023-05-22T14:10:19.776Z,26.02
2023-05-22T14:12:47.936Z,26.01
2023-05-22T14:15:17.758Z,26.01
2023-05-22T14:17:46.157Z,26.05
2023-05-22T14:20:14.336Z,26.09
2023-05-22T14:22:56.337Z,26.04
2023-05-22T14:25:25.802Z,25.93
2023-05-22T14:27:53.946Z,25.89
2023-05-22T14:30:22.222Z,25.88
2023-05-22T14:32:50.554Z,25.76
2023-05-22T14:35:19.008Z,25.64
2023-05-22T14:37:48.594Z,25.50
2023-05-22T14:40:16.756Z,25.47
2023-05-22T14:42:44.955Z,25.35
2023-05-22T14:45:13.513Z,25.23
2023-05-22T14:47:43.178Z,25.13
2023-05-22T14:50:18.834Z,24.99
2023-05-22T14:52:49.568Z,24.87
2023-05-22T14:55:18.302Z,24.88
2023-05-22T14:57:46.407Z,24.81
2023-05-22T15:00:15.461Z,24.71
2023-05-22T15:02:43.687Z,24.65
2023-05-22T15:05:11.946Z,24.68
2023-05-22T15:07:44.839Z,24.64
2023-05-22T15:10:15.870Z,24.53
2023-05-22T15:12:43.996Z,24.49
2023-05-22T15:15:12.774Z,24.47
2023-05-22T15:17:42.942Z,24.44
2023-05-22T15:20:12.459Z,24.38
2023-05-22T15:22:40.868Z,24.29
2023-05-22T15:25:11.733Z,24.23
2023-05-22T15:27:42.088Z,24.15
2023-05-22T15:30:11.416Z,24.10
2023-05-22T15:32:39.747Z,24.03
2023-05-22T15:35:09.110Z,23.98
2023-05-22T15:37:37.397Z,23.96
2023-05-22T15:40:06.997Z,23.94
2023-05-22T15:42:35.132Z,23.87
2023-05-22T15:45:04.862Z,23.84
2023-05-22T15:47:33.094Z,23.82
2023-05-22T15:50:01.274Z,23.80
2023-05-22T15:52:29.397Z,23.77
2023-05-22T15:54:58.794Z,23.72
2023-05-22T15:57:28.265Z,23.66
2023-05-22T15:59:56.643Z,23.60
2023-05-22T16:02:27.391Z,23.53
2023-05-22T16:04:55.524Z,23.43
2023-05-22T16:07:23.629Z,23.28
2023-05-22T16:09:51.728Z,23.24
2023-05-22T16:12:19.971Z,23.17
2023-05-22T16:14:48.084Z,23.11
2023-05-22T16:17:16.305Z,23.05
2023-05-22T16:19:45.791Z,23.00
2023-05-22T16:22:13.915Z,22.95
2023-05-22T16:24:42.007Z,22.90
2023-05-22T16:27:10.157Z,22.84
2023-05-22T16:29:38.259Z,22.77
2023-05-22T16:32:06.531Z,22.73
2023-05-22T16:34:34.846Z,22.72
2023-05-22T16:37:04.387Z,22.70
2023-05-22T16:39:32.517Z,22.68
2023-05-22T16:42:01.792Z,22.69
2023-05-22T16:44:29.899Z,22.63
2023-05-22T16:46:58.123Z,22.59
2023-05-22T16:49:26.299Z,22.57
2023-05-22T16:51:54.508Z,22.55
2023-05-22T16:54:24.019Z,22.51
2023-05-22T16:56:52.164Z,22.46
2023-05-22T16:59:20.612Z,22.42
2023-05-22T17:01:48.863Z,22.40
2023-05-22T17:04:19.178Z,22.36
2023-05-22T17:06:47.460Z,22.30
2023-05-22T17:09:15.602Z,22.29
2023-05-22T17:11:45.093Z,22.27
2023-05-22T17:14:13.314Z,22.20
2023-05-22T17:16:41.415Z,22.15
2023-05-22T17:19:09.871Z,22.12
2023-05-22T17:21:38.248Z,22.09
2023-05-22T17:24:06.597Z,22.04
2023-05-22T17:26:34.988Z,22.02
2023-05-22T17:29:04.863Z,22.03
2023-05-22T17:31:35.669Z,22.02
2023-05-22T17:34:05.477Z,21.99
2023-05-22T17:36:33.602Z,21.94
2023-05-22T17:39:01.752Z,21.90
2023-05-22T17:41:30.958Z,21.85
2023-05-22T17:44:00.872Z,21.78
2023-05-22T17:46:30.408Z,21.77
2023-05-22T17:48:58.703Z,21.73
2023-05-22T17:51:26.884Z,21.70
2023-05-22T17:53:56.357Z,21.68
2023-05-22T17:56:24.525Z,21.69
2023-05-22T17:58:52.825Z,21.67
2023-05-22T18:01:21.076Z,21.68
2023-05-22T18:03:50.741Z,21.67
2023-05-22T18:06:18.971Z,21.69
2023-05-22T18:08:47.970Z,21.64
2023-05-22T18:11:16.440Z,21.57
2023-05-22T18:13:44.559Z,21.52
2023-05-22T18:16:12.882Z,21.46
2023-05-22T18:18:41.040Z,21.43
2023-05-22T18:21:10.580Z,21.40
2023-05-22T18:23:38.704Z,21.37
2023-05-22T18:26:06.850Z,21.33
2023-05-22T18:28:34.957Z,21.29
2023-05-22T18:31:04.065Z,21.19
2023-05-22T18:33:33.451Z,21.12
2023-05-22T18:36:01.821Z,21.08
2023-05-22T18:38:31.447Z,21.04
2023-05-22T18:40:59.619Z,20.96
2023-05-22T18:43:28.297Z,20.84
2023-05-22T18:45:57.810Z,20.78
2023-05-22T18:48:27.195Z,20.76
2023-05-22T18:50:57.278Z,20.74
2023-05-22T18:53:26.135Z,20.68
2023-05-22T18:55:55.684Z,20.53
2023-05-22T18:58:23.827Z,20.45
2023-05-22T19:00:55.429Z,20.37
2023-05-22T19:03:23.657Z,20.32
2023-05-22T19:05:51.803Z,20.26
2023-05-22T19:08:20.193Z,20.17
2023-05-22T19:10:48.419Z,20.09
2023-05-22T19:13:17.919Z,19.93
2023-05-22T19:15:46.470Z,19.85
2023-05-22T19:18:14.596Z,19.84
2023-05-22T19:20:42.882Z,19.77
2023-05-22T19:23:12.171Z,19.61
2023-05-22T19:25:40.340Z,19.47
2023-05-22T19:28:08.454Z,19.26
2023-05-22T19:30:38.063Z,19.06
2023-05-22T19:33:08.704Z,18.86
2023-05-22T19:35:37.833Z,18.69
2023-05-22T19:38:05.985Z,18.58
2023-05-22T19:40:34.099Z,18.42
2023-05-22T19:43:02.633Z,18.23
2023-05-22T19:45:30.760Z,18.07
2023-05-22T19:48:00.446Z,17.92
2023-05-22T19:50:28.671Z,17.81
2023-05-22T19:52:56.781Z,17.78
2023-05-22T19:55:25.706Z,17.77
2023-05-22T19:57:53.818Z,17.67
2023-05-22T20:00:22.679Z,17.56
2023-05-22T20:02:51.521Z,17.50
2023-05-22T20:05:21.214Z,17.43
2023-05-22T20:07:49.369Z,17.41
2023-05-22T20:10:17.665Z,17.44
2023-05-22T20:12:45.926Z,17.45
2023-05-22T20:15:15.383Z,17.29
2023-05-22T20:17:47.608Z,17.12
2023-05-22T20:20:15.933Z,17.06
2023-05-22T20:22:45.429Z,17.06
2023-05-22T20:25:13.868Z,16.97
2023-05-22T20:27:41.953Z,16.87
2023-05-22T20:30:12.594Z,16.79
2023-05-22T20:32:42.537Z,16.76
2023-05-22T20:35:11.352Z,16.76
2023-05-22T20:37:41.730Z,16.78
2023-05-22T20:40:13.134Z,16.76
2023-05-22T20:42:42.719Z,16.75
2023-05-22T20:45:14.771Z,16.75
2023-05-22T20:47:44.859Z,16.74
2023-05-22T20:50:13.326Z,16.72
2023-05-22T20:52:41.497Z,16.64
2023-05-22T20:55:11.435Z,16.60
2023-05-22T20:57:40.029Z,16.57
2023-05-22T21:00:13.933Z,16.56
2023-05-22T21:02:42.221Z,16.55
2023-05-22T21:05:11.155Z,16.58
2023-05-22T21:07:39.272Z,16.59
2023-05-22T21:10:08.753Z,16.56
2023-05-22T21:12:38.213Z,16.51
2023-05-22T21:15:07.435Z,16.45
2023-05-22T21:17:35.895Z,16.40
2023-05-22T21:20:05.739Z,16.41
2023-05-22T21:22:33.980Z,16.41
2023-05-22T21:25:02.167Z,16.42
2023-05-22T21:27:30.256Z,16.37
2023-05-22T21:29:59.754Z,16.32
2023-05-22T21:32:27.863Z,16.32
2023-05-22T21:34:56.001Z,16.32
2023-05-22T21:37:24.115Z,16.29
2023-05-22T21:39:52.218Z,16.22
2023-05-22T21:42:21.296Z,16.21
2023-05-22T21:44:49.604Z,16.24
2023-05-22T21:47:19.084Z,16.26
2023-05-22T21:49:47.197Z,16.28
2023-05-22T21:52:16.374Z,16.22
2023-05-22T21:54:44.484Z,16.21
2023-05-22T21:57:12.602Z,16.19
2023-05-22T21:59:40.919Z,16.17
2023-05-22T22:02:09.401Z,16.15
2023-05-22T22:04:38.993Z,16.11
2023-05-22T22:07:07.405Z,16.10
2023-05-22T22:09:35.516Z,16.11
2023-05-22T22:12:03.670Z,16.12
2023-05-22T22:14:31.935Z,16.14
2023-05-22T22:17:00.784Z,16.15
2023-05-22T22:19:28.984Z,16.17
2023-05-22T22:21:58.658Z,16.19
2023-05-22T22:24:27.030Z,16.16
2023-05-22T22:26:55.135Z,16.12
2023-05-22T22:29:23.283Z,16.11
2023-05-22T22:31:51.454Z,16.12
2023-05-22T22:34:19.670Z,16.10
2023-05-22T22:36:47.771Z,16.05
2023-05-22T22:39:17.267Z,16.03
2023-05-22T22:41:45.335Z,15.99
2023-05-22T22:44:13.432Z,15.93
2023-05-22T22:46:42.287Z,15.92
2023-05-22T22:49:10.552Z,15.93
2023-05-22T22:51:38.629Z,15.88
2023-05-22T22:54:07.028Z,15.83
2023-05-22T22:56:36.732Z,15.74
2023-05-22T22:59:04.828Z,15.72
2023-05-22T23:01:33.120Z,15.70
2023-05-22T23:04:01.315Z,15.67
2023-05-22T23:06:32.868Z,15.67
2023-05-22T23:09:02.783Z,15.69
2023-05-22T23:11:37.596Z,15.70
2023-05-22T23:14:08.361Z,15.69
2023-05-22T23:16:37.029Z,15.64
2023-05-22T23:19:06.337Z,15.63
2023-05-22T23:21:34.866Z,15.62
2023-05-22T23:24:05.244Z,15.62
2023-05-22T23:26:33.854Z,15.63
2023-05-22T23:29:02.417Z,15.61
2023-05-22T23:31:31.953Z,15.63
2023-05-22T23:34:00.421Z,15.62
2023-05-22T23:36:28.666Z,15.64
2023-05-22T23:38:56.842Z,15.64
2023-05-22T23:41:25.527Z,15.64
2023-05-22T23:43:53.631Z,15.65
2023-05-22T23:46:22.111Z,15.66
2023-05-22T23:48:51.698Z,15.66
2023-05-22T23:51:19.842Z,15.64
2023-05-22T23:53:47.934Z,15.65
2023-05-22T23:56:17.095Z,15.68
2023-05-22T23:58:45.259Z,15.74
